createdAt,value
2023-01-13T00:00:45.268Z,100148.32
2023-01-13T00:01:49.549Z,100148.06
2023-01-13T00:02:53.809Z,100146.91
2023-01-13T00:03:58.056Z,100148.58
2023-01-13T00:05:02.502Z,100154.6
2023-01-13T00:06:07.095Z,100137.47
2023-01-13T00:07:11.315Z,100138.47
2023-01-13T00:08:15.531Z,100146.65
2023-01-13T00:09:19.777Z,100145.98
2023-01-13T00:10:24.007Z,100145.49
2023-01-13T00:11:28.253Z,100136.02
2023-01-13T00:12:32.488Z,100138.55
2023-01-13T00:13:36.729Z,100138.13
2023-01-13T00:14:40.945Z,100135.8
2023-01-13T00:15:45.242Z,100129
2023-01-13T00:16:49.781Z,100136.8
2023-01-13T00:17:54.057Z,100129.11
2023-01-13T00:18:58.333Z,100130.34
2023-01-13T00:20:02.585Z,100125.17
2023-01-13T00:21:06.842Z,100123.42
2023-01-13T00:22:13.385Z,100130.44
2023-01-13T00:23:17.645Z,100126.98
2023-01-13T00:24:21.873Z,100123.57
2023-01-13T00:25:26.111Z,100123.42
2023-01-13T00:26:30.356Z,100128.17
2023-01-13T00:27:34.621Z,100122.64
2023-01-13T00:28:38.873Z,100118.95
2023-01-13T00:29:43.250Z,100117.95
2023-01-13T00:30:47.484Z,100119.55
2023-01-13T00:31:51.698Z,100116.06
2023-01-13T00:32:55.958Z,100117.73
2023-01-13T00:34:00.213Z,100108.37
2023-01-13T00:35:04.480Z,100112.45
2023-01-13T00:36:08.730Z,100113.2
2023-01-13T00:37:13.063Z,100111.27
2023-01-13T00:38:17.270Z,100119.48
2023-01-13T00:39:21.493Z,100115.28
2023-01-13T00:40:25.751Z,100111.37
2023-01-13T00:41:29.991Z,100110.7
2023-01-13T00:42:34.222Z,100109.27
2023-01-13T00:43:38.495Z,100110.78
2023-01-13T00:44:42.775Z,100110.38
2023-01-13T00:45:46.985Z,100109.45
2023-01-13T00:46:51.477Z,100111.71
2023-01-13T00:47:55.781Z,100115.13
2023-01-13T00:49:00.025Z,100111.71
2023-01-13T00:50:04.267Z,100108.7
2023-01-13T00:51:08.531Z,100114.87
2023-01-13T00:52:12.833Z,100108.86
2023-01-13T00:53:17.093Z,100105.52
2023-01-13T00:54:21.346Z,100101.02
2023-01-13T00:55:25.592Z,100108.37
2023-01-13T00:56:41.504Z,100104.69
2023-01-13T00:57:45.839Z,100104.92
2023-01-13T00:58:50.102Z,100108.59
2023-01-13T00:59:54.354Z,100098.23
2023-01-13T01:00:58.924Z,100098.93
2023-01-13T01:02:03.718Z,100100.57
2023-01-13T01:03:08.249Z,100102.34
2023-01-13T01:04:12.503Z,100099.23
2023-01-13T01:05:16.710Z,100098
2023-01-13T01:06:21.064Z,100098.74
2023-01-13T01:07:25.299Z,100097.66
2023-01-13T01:08:29.544Z,100099.23
2023-01-13T01:09:33.890Z,100094.73
2023-01-13T01:10:38.095Z,100088.56
2023-01-13T01:11:42.366Z,100096.15
2023-01-13T01:12:46.589Z,100084.22
2023-01-13T01:13:50.838Z,100087.97
2023-01-13T01:14:55.146Z,100087.63
2023-01-13T01:15:59.455Z,100084.95
2023-01-13T01:17:03.744Z,100092.66
2023-01-13T01:18:08.090Z,100085.7
2023-01-13T01:19:12.364Z,100090.56
2023-01-13T01:20:17.697Z,100080.95
2023-01-13T01:21:21.957Z,100087.86
2023-01-13T01:22:26.244Z,100088.3
2023-01-13T01:23:30.454Z,100077.34
2023-01-13T01:24:34.711Z,100082.44
2023-01-13T01:25:38.985Z,100086.3
2023-01-13T01:26:43.301Z,100085.03
2023-01-13T01:27:47.533Z,100077.75
2023-01-13T01:28:51.789Z,100078.94
2023-01-13T01:29:56.048Z,100077.48
2023-01-13T01:31:00.418Z,100079.16
2023-01-13T01:32:04.844Z,100073
2023-01-13T01:33:09.144Z,100079.09
2023-01-13T01:34:13.364Z,100077.94
2023-01-13T01:35:17.585Z,100081.02
2023-01-13T01:36:21.851Z,100080.2
2023-01-13T01:37:26.157Z,100074.07
2023-01-13T01:38:30.403Z,100074
2023-01-13T01:39:34.653Z,100075.34
2023-01-13T01:40:38.913Z,100080.77
2023-01-13T01:41:43.128Z,100081.28
2023-01-13T01:42:47.419Z,100078.2
2023-01-13T01:43:51.697Z,100069.91
2023-01-13T01:44:55.949Z,100070.73
2023-01-13T01:46:00.170Z,100067.23
2023-01-13T01:47:04.546Z,100070.99
2023-01-13T01:48:08.948Z,100065.23
2023-01-13T01:49:13.179Z,100070.4
2023-01-13T01:50:17.394Z,100062.7
2023-01-13T01:51:21.639Z,100057.95
2023-01-13T01:52:25.872Z,100060.13
2023-01-13T01:53:30.162Z,100061.96
2023-01-13T01:54:34.440Z,100060.14
2023-01-13T01:55:38.663Z,100058.8
2023-01-13T01:56:42.901Z,100054.45
2023-01-13T01:57:47.187Z,100057.54
2023-01-13T01:58:51.437Z,100053.86
2023-01-13T01:59:55.747Z,100049.66
2023-01-13T02:01:00.280Z,100046.32
2023-01-13T02:02:04.963Z,100047.99
2023-01-13T02:03:09.555Z,100045.09
2023-01-13T02:04:13.805Z,100046.91
2023-01-13T02:05:18.053Z,100050.92
2023-01-13T02:06:22.300Z,100047.1
2023-01-13T02:07:26.555Z,100045.77
2023-01-13T02:08:30.808Z,100043.91
2023-01-13T02:09:35.029Z,100041.91
2023-01-13T02:10:39.292Z,100038.14
2023-01-13T02:11:43.542Z,100040.83
2023-01-13T02:12:47.788Z,100032.88
2023-01-13T02:13:52.053Z,100046.84
2023-01-13T02:14:56.297Z,100042.23
2023-01-13T02:16:00.673Z,100038.63
2023-01-13T02:17:05.022Z,100044.5
2023-01-13T02:18:09.271Z,100041.08
2023-01-13T02:19:13.525Z,100047
2023-01-13T02:20:17.760Z,100035.22
2023-01-13T02:21:21.998Z,100030.53
2023-01-13T02:22:26.228Z,100027.86
2023-01-13T02:23:30.550Z,100032.2
2023-01-13T02:24:34.814Z,100026.92
2023-01-13T02:25:39.229Z,100024.92
2023-01-13T02:26:43.934Z,100033.39
2023-01-13T02:27:48.393Z,100033.72
2023-01-13T02:28:52.807Z,100031.05
2023-01-13T02:29:57.317Z,100026.78
2023-01-13T02:31:01.582Z,100027.19
2023-01-13T02:32:05.803Z,100027.94
2023-01-13T02:33:10.008Z,100023.84
2023-01-13T02:34:14.261Z,100021.51
2023-01-13T02:35:18.536Z,100026.6
2023-01-13T02:36:22.795Z,100023.37
2023-01-13T02:37:27.032Z,100012.93
2023-01-13T02:38:31.276Z,100023.26
2023-01-13T02:39:35.585Z,100022.84
2023-01-13T02:40:39.834Z,100026.94
2023-01-13T02:41:44.098Z,100019.5
2023-01-13T02:42:49.335Z,100025.03
2023-01-13T02:43:53.582Z,100029.38
2023-01-13T02:44:57.804Z,100022.25
2023-01-13T02:46:02.260Z,100023.18
2023-01-13T02:47:06.565Z,100015.48
2023-01-13T02:48:10.799Z,100018.5
2023-01-13T02:49:15.088Z,100013.41
2023-01-13T02:50:19.312Z,100024.78
2023-01-13T02:51:23.624Z,100021.44
2023-01-13T02:52:27.863Z,100015.09
2023-01-13T02:53:32.109Z,100010.89
2023-01-13T02:54:36.351Z,100020.52
2023-01-13T02:55:40.651Z,100019.95
2023-01-13T02:56:44.895Z,100022.38
2023-01-13T02:57:49.123Z,100022.11
2023-01-13T02:58:53.376Z,100017.28
2023-01-13T02:59:57.637Z,100018.17
2023-01-13T03:01:02.237Z,100027.13
2023-01-13T03:02:07.070Z,100026.87
2023-01-13T03:03:14.800Z,100018.44
2023-01-13T03:04:19.075Z,100015.35
2023-01-13T03:05:23.357Z,100017.51
2023-01-13T03:06:27.637Z,100015.5
2023-01-13T03:07:31.934Z,100016.16
2023-01-13T03:08:36.227Z,100016.61
2023-01-13T03:09:40.551Z,100010.33
2023-01-13T03:10:44.823Z,100018.61
2023-01-13T03:11:49.078Z,100013.83
2023-01-13T03:12:53.385Z,100012.27
2023-01-13T03:13:57.749Z,100014.94
2023-01-13T03:15:01.999Z,100016.17
2023-01-13T03:16:06.339Z,100015.94
2023-01-13T03:17:10.617Z,100014.27
2023-01-13T03:18:14.911Z,100017.51
2023-01-13T03:19:19.165Z,100019.44
2023-01-13T03:20:23.454Z,100014.76
2023-01-13T03:21:27.739Z,100017.84
2023-01-13T03:22:32.013Z,100005.4
2023-01-13T03:23:36.270Z,100013.65
2023-01-13T03:24:40.745Z,100014.24
2023-01-13T03:25:45.013Z,100010.05
2023-01-13T03:26:49.283Z,100008.48
2023-01-13T03:27:53.530Z,100013.34
2023-01-13T03:28:57.810Z,100005.11
2023-01-13T03:30:02.073Z,100001.31
2023-01-13T03:31:06.491Z,100011.31
2023-01-13T03:32:10.895Z,99998.69
2023-01-13T03:33:15.181Z,100010.37
2023-01-13T03:34:19.459Z,100009.16
2023-01-13T03:35:23.747Z,100013.6
2023-01-13T03:36:28.003Z,100016.84
2023-01-13T03:37:32.302Z,100015.84
2023-01-13T03:38:36.613Z,100015.84
2023-01-13T03:39:40.923Z,100016.02
2023-01-13T03:40:45.211Z,100009.05
2023-01-13T03:41:49.460Z,100011.8
2023-01-13T03:42:53.724Z,100012.23
2023-01-13T03:43:58.011Z,100007.41
2023-01-13T03:45:02.295Z,100013.34
2023-01-13T03:46:06.708Z,100024.97
2023-01-13T03:47:10.982Z,100008.48
2023-01-13T03:48:15.244Z,100009.48
2023-01-13T03:49:19.506Z,100012
2023-01-13T03:50:23.808Z,100004.91
2023-01-13T03:51:28.148Z,100013.49
2023-01-13T03:52:32.451Z,100021.03
2023-01-13T03:53:36.737Z,100017.77
2023-01-13T03:54:40.997Z,100016.28
2023-01-13T03:55:45.286Z,100011.75
2023-01-13T03:56:49.551Z,100008.66
2023-01-13T03:57:53.895Z,100009.59
2023-01-13T03:58:58.297Z,100007.15
2023-01-13T04:00:02.589Z,100013.47
2023-01-13T04:01:07.125Z,100010.48
2023-01-13T04:02:11.941Z,100009
2023-01-13T04:03:16.417Z,100002.46
2023-01-13T04:04:20.671Z,100006.92
2023-01-13T04:05:24.953Z,100004.73
2023-01-13T04:06:29.264Z,100006.4
2023-01-13T04:07:33.629Z,100004.95
2023-01-13T04:08:37.964Z,100007.12
2023-01-13T04:09:45.231Z,100005.55
2023-01-13T04:10:49.472Z,100006.04
2023-01-13T04:11:53.773Z,100004.7
2023-01-13T04:12:58.048Z,100003.13
2023-01-13T04:14:02.310Z,100004.11
2023-01-13T04:15:06.561Z,100007.45
2023-01-13T04:16:10.962Z,99999.09
2023-01-13T04:17:15.338Z,100002.63
2023-01-13T04:18:19.587Z,100006.37
2023-01-13T04:19:23.850Z,100004.89
2023-01-13T04:20:28.105Z,100010.72
2023-01-13T04:21:32.398Z,100004.38
2023-01-13T04:22:36.665Z,100003.63
2023-01-13T04:23:40.975Z,100003.55
2023-01-13T04:24:45.240Z,99997.61
2023-01-13T04:25:49.540Z,99998.69
2023-01-13T04:26:53.800Z,99998.69
2023-01-13T04:27:58.048Z,99990.25
2023-01-13T04:29:02.312Z,100002.21
2023-01-13T04:30:06.802Z,99994.27
2023-01-13T04:31:11.258Z,99998.2
2023-01-13T04:32:15.679Z,99997.8
2023-01-13T04:33:20.233Z,99993.19
2023-01-13T04:34:25.842Z,99994.67
2023-01-13T04:35:31.841Z,99998.27
2023-01-13T04:36:36.125Z,99996.68
2023-01-13T04:37:40.387Z,99995.09
2023-01-13T04:38:44.665Z,99996.94
2023-01-13T04:39:48.915Z,99996.02
2023-01-13T04:40:53.220Z,99989.51
2023-01-13T04:41:57.441Z,99992.52
2023-01-13T04:43:01.703Z,99993.86
2023-01-13T04:44:05.969Z,99998.34
2023-01-13T04:45:10.242Z,99995.11
2023-01-13T04:46:14.529Z,99991.44
2023-01-13T04:47:18.865Z,100003.63
2023-01-13T04:48:23.472Z,99993.59
2023-01-13T04:49:27.739Z,99994.75
2023-01-13T04:50:31.999Z,99996.67
2023-01-13T04:51:36.460Z,99989.92
2023-01-13T04:52:40.717Z,99990.95
2023-01-13T04:53:45.018Z,99993.02
2023-01-13T04:54:49.285Z,99990.02
2023-01-13T04:55:53.532Z,99991.09
2023-01-13T04:56:57.770Z,99983.91
2023-01-13T04:58:02.008Z,99994.95
2023-01-13T04:59:06.265Z,99996.95
2023-01-13T05:00:10.481Z,99994.02
2023-01-13T05:01:15.005Z,99995.78
2023-01-13T05:02:19.672Z,99999.27
2023-01-13T05:03:24.050Z,99995.34
2023-01-13T05:04:28.435Z,99998.77
2023-01-13T05:05:32.757Z,99998.35
2023-01-13T05:06:37.111Z,99996.34
2023-01-13T05:07:41.352Z,99995.11
2023-01-13T05:08:45.599Z,99993.61
2023-01-13T05:09:49.850Z,99995.09
2023-01-13T05:10:54.177Z,99998.61
2023-01-13T05:11:58.430Z,99998.83
2023-01-13T05:13:02.672Z,99995.66
2023-01-13T05:14:06.902Z,99994.2
2023-01-13T05:15:11.210Z,99994.63
2023-01-13T05:16:15.683Z,99992.36
2023-01-13T05:17:20.009Z,99989.34
2023-01-13T05:18:27.395Z,99988.99
2023-01-13T05:19:31.898Z,99994.55
2023-01-13T05:20:36.159Z,99990.8
2023-01-13T05:21:40.944Z,99980.42
2023-01-13T05:22:45.208Z,99985.02
2023-01-13T05:23:49.510Z,99986.95
2023-01-13T05:24:53.826Z,99992.86
2023-01-13T05:25:58.091Z,99991.36
2023-01-13T05:27:02.301Z,99992.52
2023-01-13T05:28:06.521Z,99989.75
2023-01-13T05:29:10.798Z,99987.41
2023-01-13T05:30:15.073Z,99991.67
2023-01-13T05:31:19.484Z,99993.67
2023-01-13T05:32:23.783Z,99991.22
2023-01-13T05:33:28.502Z,100001.77
2023-01-13T05:34:32.718Z,99994.34
2023-01-13T05:35:37.064Z,99995.08
2023-01-13T05:36:41.323Z,99990.38
2023-01-13T05:37:45.627Z,99993.14
2023-01-13T05:38:49.884Z,99993.39
2023-01-13T05:39:54.210Z,99999.56
2023-01-13T05:41:00.396Z,99997.81
2023-01-13T05:42:04.637Z,99990.6
2023-01-13T05:43:08.868Z,99998.64
2023-01-13T05:44:13.119Z,99997.73
2023-01-13T05:45:17.322Z,99992.38
2023-01-13T05:46:21.700Z,99988.25
2023-01-13T05:47:26.006Z,99994.54
2023-01-13T05:48:30.252Z,99980.41
2023-01-13T05:49:34.482Z,99994.73
2023-01-13T05:50:38.761Z,99985.95
2023-01-13T05:51:43.003Z,99982.77
2023-01-13T05:52:47.281Z,99993.8
2023-01-13T05:53:51.526Z,99990.38
2023-01-13T05:54:55.766Z,99993.66
2023-01-13T05:55:59.975Z,99982.62
2023-01-13T05:57:04.206Z,99992.48
2023-01-13T05:58:08.434Z,99992.34
2023-01-13T05:59:12.704Z,99989.33
2023-01-13T06:00:16.909Z,99996.02
2023-01-13T06:01:21.252Z,99994.77
2023-01-13T06:02:25.579Z,100000.2
2023-01-13T06:03:29.781Z,99995.92
2023-01-13T06:04:34.218Z,99995.44
2023-01-13T06:05:38.653Z,100009.91
2023-01-13T06:06:43.157Z,99994.86
2023-01-13T06:07:47.421Z,100002.81
2023-01-13T06:08:51.675Z,100001.55
2023-01-13T06:09:55.940Z,100004.91
2023-01-13T06:11:00.240Z,99993.86
2023-01-13T06:12:04.507Z,99999.55
2023-01-13T06:13:08.774Z,99996.95
2023-01-13T06:14:13.063Z,100003.75
2023-01-13T06:15:17.433Z,100000.64
2023-01-13T06:16:21.781Z,100003.02
2023-01-13T06:17:26.504Z,100006.59
2023-01-13T06:18:30.779Z,100002.34
2023-01-13T06:19:35.058Z,100002.09
2023-01-13T06:20:39.320Z,100006.59
2023-01-13T06:21:43.597Z,100006.37
2023-01-13T06:22:48.863Z,100007.39
2023-01-13T06:23:53.365Z,100001.59
2023-01-13T06:24:57.633Z,99994.08
2023-01-13T06:26:01.923Z,100003.18
2023-01-13T06:27:06.190Z,100007.78
2023-01-13T06:28:10.424Z,100012.12
2023-01-13T06:29:14.695Z,100010.79
2023-01-13T06:30:18.964Z,100013.39
2023-01-13T06:31:23.312Z,100008.03
2023-01-13T06:32:27.733Z,100009.59
2023-01-13T06:33:31.964Z,100012.6
2023-01-13T06:34:36.651Z,100003.91
2023-01-13T06:35:41.029Z,100014.13
2023-01-13T06:36:45.308Z,100010
2023-01-13T06:37:49.593Z,100001.83
2023-01-13T06:38:53.909Z,100009.86
2023-01-13T06:39:58.185Z,99999.42
2023-01-13T06:41:02.491Z,100006.44
2023-01-13T06:42:06.756Z,100008.27
2023-01-13T06:43:11.021Z,99998.56
2023-01-13T06:44:18.365Z,100008.95
2023-01-13T06:45:23.659Z,100010.2
2023-01-13T06:46:28.442Z,100010.72
2023-01-13T06:47:32.742Z,100003.7
2023-01-13T06:48:37.079Z,100009.21
2023-01-13T06:49:41.370Z,100007.05
2023-01-13T06:50:45.625Z,100008.06
2023-01-13T06:51:49.917Z,100008.22
2023-01-13T06:52:54.199Z,100007.13
2023-01-13T06:53:58.503Z,100009.81
2023-01-13T06:55:02.785Z,100010.89
2023-01-13T06:56:07.074Z,100004.8
2023-01-13T06:57:11.354Z,100009.73
2023-01-13T06:58:15.615Z,100007.4
2023-01-13T06:59:19.893Z,100004.62
2023-01-13T07:00:24.152Z,100003.39
2023-01-13T07:01:28.737Z,100009.67
2023-01-13T07:02:33.445Z,100006.89
2023-01-13T07:03:37.745Z,100000.88
2023-01-13T07:04:42.052Z,100003.81
2023-01-13T07:05:46.380Z,100008.75
2023-01-13T07:06:50.657Z,100004
2023-01-13T07:07:54.948Z,100014.59
2023-01-13T07:08:59.192Z,100007.16
2023-01-13T07:10:03.500Z,100010.58
2023-01-13T07:11:07.782Z,100009.58
2023-01-13T07:12:12.161Z,100006.56
2023-01-13T07:13:16.440Z,100008.57
2023-01-13T07:14:20.723Z,100006.15
2023-01-13T07:15:25.054Z,100011.23
2023-01-13T07:16:29.533Z,100010.08
2023-01-13T07:17:33.889Z,100008.55
2023-01-13T07:18:38.164Z,100013.22
2023-01-13T07:19:42.437Z,100017.75
2023-01-13T07:20:46.753Z,100011.2
2023-01-13T07:21:50.994Z,100012.54
2023-01-13T07:22:55.277Z,100011.45
2023-01-13T07:23:59.546Z,100022.23
2023-01-13T07:25:04.833Z,100022.23
2023-01-13T07:26:09.300Z,100021.95
2023-01-13T07:27:13.586Z,100021.8
2023-01-13T07:28:17.863Z,100028.5
2023-01-13T07:29:22.169Z,100023.88
2023-01-13T07:30:26.412Z,100021.2
2023-01-13T07:31:30.875Z,100025.3
2023-01-13T07:32:35.272Z,100026.23
2023-01-13T07:33:39.579Z,100025.48
2023-01-13T07:34:43.832Z,100022.37
2023-01-13T07:35:48.080Z,100026.98
2023-01-13T07:36:52.384Z,100032.34
2023-01-13T07:37:56.647Z,100026.73
2023-01-13T07:39:00.938Z,100030.33
2023-01-13T07:40:05.242Z,100032.68
2023-01-13T07:41:09.522Z,100030.52
2023-01-13T07:42:13.812Z,100032.02
2023-01-13T07:43:18.073Z,100034.88
2023-01-13T07:44:22.386Z,100039.83
2023-01-13T07:45:26.698Z,100030.2
2023-01-13T07:46:31.060Z,100036.64
2023-01-13T07:47:35.444Z,100033.47
2023-01-13T07:48:39.744Z,100037.16
2023-01-13T07:49:44.008Z,100030.63
2023-01-13T07:50:48.274Z,100028.55
2023-01-13T07:51:52.521Z,100032.63
2023-01-13T07:52:56.831Z,100040.17
2023-01-13T07:54:01.113Z,100035.31
2023-01-13T07:55:05.405Z,100032.71
2023-01-13T07:56:11.731Z,100037.33
2023-01-13T07:57:15.991Z,100038.73
2023-01-13T07:58:20.279Z,100036.25
2023-01-13T07:59:24.556Z,100042.75
2023-01-13T08:00:28.803Z,100035.32
2023-01-13T08:01:33.548Z,100039.34
2023-01-13T08:02:38.220Z,100035.4
2023-01-13T08:03:42.540Z,100039
2023-01-13T08:04:46.858Z,100039.34
2023-01-13T08:05:51.148Z,100043.76
2023-01-13T08:06:55.493Z,100036.06
2023-01-13T08:07:59.762Z,100038.73
2023-01-13T08:09:04.069Z,100034.49
2023-01-13T08:10:08.411Z,100030.55
2023-01-13T08:11:13.081Z,100037.72
2023-01-13T08:12:17.818Z,100043.25
2023-01-13T08:13:22.291Z,100040.31
2023-01-13T08:14:26.541Z,100041.83
2023-01-13T08:15:30.787Z,100042.98
2023-01-13T08:16:35.227Z,100048.14
2023-01-13T08:17:39.523Z,100052.08
2023-01-13T08:18:43.863Z,100049.81
2023-01-13T08:19:48.134Z,100049.41
2023-01-13T08:20:52.502Z,100055.17
2023-01-13T08:21:56.899Z,100056.09
2023-01-13T08:23:01.214Z,100057.19
2023-01-13T08:24:05.508Z,100060.78
2023-01-13T08:25:09.819Z,100062.2
2023-01-13T08:26:14.126Z,100053.95
2023-01-13T08:27:18.431Z,100051.77
2023-01-13T08:28:22.705Z,100053.54
2023-01-13T08:29:26.972Z,100056.3
2023-01-13T08:30:31.426Z,100052.88
2023-01-13T08:31:35.798Z,100048.09
2023-01-13T08:32:40.074Z,100050.02
2023-01-13T08:33:44.378Z,100050.28
2023-01-13T08:34:48.652Z,100054.3
2023-01-13T08:35:52.928Z,100052.45
2023-01-13T08:36:57.255Z,100046.87
2023-01-13T08:38:01.557Z,100053.89
2023-01-13T08:39:05.826Z,100051.78
2023-01-13T08:40:10.076Z,100055.98
2023-01-13T08:41:14.356Z,100057.91
2023-01-13T08:42:18.678Z,100059.14
2023-01-13T08:43:22.954Z,100052.97
2023-01-13T08:44:27.218Z,100058.4
2023-01-13T08:45:31.501Z,100056.73
2023-01-13T08:46:35.939Z,100054.13
2023-01-13T08:47:40.238Z,100055.06
2023-01-13T08:48:44.485Z,100058.33
2023-01-13T08:49:48.758Z,100058.52
2023-01-13T08:50:53.011Z,100057.25
2023-01-13T08:51:57.259Z,100058.75
2023-01-13T08:53:01.662Z,100065.2
2023-01-13T08:54:06.007Z,100060.75
2023-01-13T08:55:10.338Z,100064.69
2023-01-13T08:56:14.644Z,100059.59
2023-01-13T08:57:19.020Z,100059.26
2023-01-13T08:58:23.505Z,100061.01
2023-01-13T08:59:30.947Z,100062.86
2023-01-13T09:00:35.257Z,100070.56
2023-01-13T09:01:39.803Z,100070.19
2023-01-13T09:02:44.381Z,100064.02
2023-01-13T09:03:48.676Z,100067.7
2023-01-13T09:04:53.157Z,100065.69
2023-01-13T09:05:57.495Z,100067.69
2023-01-13T09:07:01.763Z,100069.44
2023-01-13T09:08:06.060Z,100071.85
2023-01-13T09:09:10.356Z,100069.84
2023-01-13T09:10:14.735Z,100069.17
2023-01-13T09:11:19.201Z,100066.59
2023-01-13T09:12:23.455Z,100062.66
2023-01-13T09:13:27.760Z,100070.42
2023-01-13T09:14:33.045Z,100072.91
2023-01-13T09:15:37.467Z,100067.73
2023-01-13T09:16:41.944Z,100069.48
2023-01-13T09:17:46.318Z,100064.05
2023-01-13T09:18:50.622Z,100069
2023-01-13T09:19:55.156Z,100071.56
2023-01-13T09:20:59.453Z,100066.21
2023-01-13T09:22:03.716Z,100062.05
2023-01-13T09:23:11.664Z,100069.48
2023-01-13T09:24:15.983Z,100064.53
2023-01-13T09:25:21.273Z,100062.98
2023-01-13T09:26:25.604Z,100062.2
2023-01-13T09:27:29.862Z,100064.14
2023-01-13T09:28:36.419Z,100063.32
2023-01-13T09:29:40.713Z,100061.13
2023-01-13T09:30:45.072Z,100065.74
2023-01-13T09:31:49.542Z,100060.98
2023-01-13T09:32:53.855Z,100060.05
2023-01-13T09:33:58.309Z,100059.8
2023-01-13T09:35:02.784Z,100057.23
2023-01-13T09:36:07.136Z,100064.93
2023-01-13T09:37:11.381Z,100061.41
2023-01-13T09:38:15.697Z,100063.15
2023-01-13T09:39:19.994Z,100062.33
2023-01-13T09:40:24.290Z,100061.92
2023-01-13T09:41:28.594Z,100055.23
2023-01-13T09:42:32.888Z,100064.75
2023-01-13T09:43:37.213Z,100059.59
2023-01-13T09:44:41.502Z,100053.38
2023-01-13T09:45:45.811Z,100047.36
2023-01-13T09:46:50.157Z,100055.58
2023-01-13T09:47:54.439Z,100057.33
2023-01-13T09:48:58.726Z,100048.03
2023-01-13T09:50:02.974Z,100056.06
2023-01-13T09:51:07.332Z,100048.97
2023-01-13T09:52:11.658Z,100047.14
2023-01-13T09:53:16.251Z,100047.22
2023-01-13T09:54:20.535Z,100040.94
2023-01-13T09:55:24.776Z,100041.34
2023-01-13T09:56:29.031Z,100041.34
2023-01-13T09:57:33.325Z,100037.59
2023-01-13T09:58:37.688Z,100046.36
2023-01-13T09:59:41.991Z,100045.43
2023-01-13T10:00:46.283Z,100040.33
2023-01-13T10:01:50.543Z,100043.59
2023-01-13T10:02:54.860Z,100043.52
2023-01-13T10:03:59.112Z,100046.08
2023-01-13T10:05:03.557Z,100044.59
2023-01-13T10:06:07.973Z,100045
2023-01-13T10:07:12.256Z,100035.63
2023-01-13T10:08:16.536Z,100040.66
2023-01-13T10:09:20.864Z,100047.27
2023-01-13T10:10:25.119Z,100038.83
2023-01-13T10:11:29.435Z,100043.41
2023-01-13T10:12:33.715Z,100048.95
2023-01-13T10:13:38.011Z,100040.51
2023-01-13T10:14:42.264Z,100037.17
2023-01-13T10:15:46.854Z,100045.69
2023-01-13T10:16:51.197Z,100045.88
2023-01-13T10:17:55.502Z,100036.31
2023-01-13T10:18:59.786Z,100030.97
2023-01-13T10:20:04.055Z,100034.23
2023-01-13T10:21:08.377Z,100031.16
2023-01-13T10:22:12.628Z,100036.99
2023-01-13T10:23:16.900Z,100036.58
2023-01-13T10:24:21.206Z,100032.64
2023-01-13T10:25:25.501Z,100026.14
2023-01-13T10:26:29.989Z,100031.98
2023-01-13T10:27:34.368Z,100031.31
2023-01-13T10:28:41.141Z,100026.81
2023-01-13T10:29:45.450Z,100030.58
2023-01-13T10:30:50.899Z,100031.91
2023-01-13T10:31:55.276Z,100025.81
2023-01-13T10:32:59.547Z,100030.42
2023-01-13T10:34:03.805Z,100021.88
2023-01-13T10:35:08.075Z,100032.66
2023-01-13T10:36:12.357Z,100029.66
2023-01-13T10:37:16.716Z,100027.83
2023-01-13T10:38:20.983Z,100025.75
2023-01-13T10:39:25.247Z,100026.23
2023-01-13T10:40:29.486Z,100027.24
2023-01-13T10:41:33.730Z,100031.09
2023-01-13T10:42:38.009Z,100022.3
2023-01-13T10:43:42.258Z,100024.41
2023-01-13T10:44:46.580Z,100021.22
2023-01-13T10:45:50.871Z,100029.77
2023-01-13T10:46:55.355Z,100032.52
2023-01-13T10:48:00.764Z,100024.23
2023-01-13T10:49:05.074Z,100033.19
2023-01-13T10:50:10.727Z,100031.33
2023-01-13T10:51:15.016Z,100025.3
2023-01-13T10:52:19.437Z,100030.5
2023-01-13T10:53:23.814Z,100023.96
2023-01-13T10:54:28.138Z,100031.91
2023-01-13T10:55:32.440Z,100035.78
2023-01-13T10:56:36.756Z,100025.83
2023-01-13T10:57:41.023Z,100030.58
2023-01-13T10:58:45.376Z,100032.84
2023-01-13T10:59:49.691Z,100028.91
2023-01-13T11:00:54.096Z,100030.77
2023-01-13T11:01:59.570Z,100025.83
2023-01-13T11:03:05.596Z,100027.16
2023-01-13T11:04:09.840Z,100029.09
2023-01-13T11:05:14.292Z,100033.86
2023-01-13T11:06:18.699Z,100029.67
2023-01-13T11:07:22.965Z,100022.49
2023-01-13T11:08:27.230Z,100027.09
2023-01-13T11:09:31.531Z,100023.77
2023-01-13T11:10:35.767Z,100026.91
2023-01-13T11:11:40.135Z,100026.69
2023-01-13T11:12:44.418Z,100029.93
2023-01-13T11:13:48.673Z,100025.77
2023-01-13T11:14:52.931Z,100022.35
2023-01-13T11:15:57.296Z,100023.91
2023-01-13T11:17:01.635Z,100017.89
2023-01-13T11:18:05.898Z,100015.66
2023-01-13T11:19:10.161Z,100008.04
2023-01-13T11:20:14.460Z,100009.37
2023-01-13T11:21:18.781Z,100004.58
2023-01-13T11:22:23.026Z,100010.59
2023-01-13T11:23:27.296Z,100009.43
2023-01-13T11:24:31.589Z,100009.34
2023-01-13T11:25:35.852Z,100005.8
2023-01-13T11:26:42.429Z,100009.29
2023-01-13T11:27:46.716Z,100007.61
2023-01-13T11:28:50.967Z,100005.19
2023-01-13T11:29:55.258Z,100009.38
2023-01-13T11:30:59.613Z,100015.36
2023-01-13T11:32:03.965Z,100015.2
2023-01-13T11:33:08.280Z,100008.84
2023-01-13T11:34:12.601Z,100014.86
2023-01-13T11:35:16.859Z,100017.67
2023-01-13T11:36:21.783Z,100012.98
2023-01-13T11:37:26.059Z,100018.67
2023-01-13T11:38:30.301Z,100013.56
2023-01-13T11:39:34.594Z,100015.98
2023-01-13T11:40:38.850Z,100011.88
2023-01-13T11:41:43.139Z,100008.8
2023-01-13T11:42:47.415Z,100013.88
2023-01-13T11:43:51.691Z,100012.02
2023-01-13T11:44:55.943Z,100012.8
2023-01-13T11:46:00.267Z,100010.94
2023-01-13T11:47:04.679Z,100009.59
2023-01-13T11:48:08.992Z,100003.5
2023-01-13T11:49:13.274Z,100006.77
2023-01-13T11:50:17.544Z,100007.93
2023-01-13T11:51:21.817Z,100002.59
2023-01-13T11:52:26.148Z,100003.45
2023-01-13T11:53:30.386Z,100005.96
2023-01-13T11:54:34.648Z,100008.98
2023-01-13T11:55:39.010Z,100010.84
2023-01-13T11:56:43.417Z,100008.18
2023-01-13T11:57:47.756Z,100010.19
2023-01-13T11:58:52.534Z,100009.45
2023-01-13T11:59:56.790Z,100006.03
2023-01-13T12:01:01.234Z,100015.83
2023-01-13T12:02:05.765Z,100010.3
2023-01-13T12:03:10.301Z,100010.16
2023-01-13T12:04:14.709Z,100012.17
2023-01-13T12:05:18.979Z,100014.7
2023-01-13T12:06:23.235Z,100007.09
2023-01-13T12:07:27.473Z,100011.59
2023-01-13T12:08:31.821Z,100013.11
2023-01-13T12:09:36.089Z,100009.69
2023-01-13T12:10:40.401Z,100010.93
2023-01-13T12:11:44.742Z,100012.71
2023-01-13T12:12:49.071Z,100013.87
2023-01-13T12:13:53.365Z,100016.06
2023-01-13T12:14:57.790Z,100013.2
2023-01-13T12:16:02.076Z,100013.2
2023-01-13T12:17:06.359Z,100015.39
2023-01-13T12:18:10.647Z,100010.78
2023-01-13T12:19:15.992Z,100011.52
2023-01-13T12:20:20.325Z,100008.44